createdAt,value
2019-03-06T00:03:01.532Z,9.37
2019-03-06T00:06:05.154Z,8.90
2019-03-06T00:09:08.930Z,9.10
2019-03-06T00:12:12.522Z,9.10
2019-03-06T00:15:16.315Z,8.93
2019-03-06T00:18:19.874Z,8.20
2019-03-06T00:21:23.442Z,8.60
2019-03-06T00:24:27.002Z,8.60
2019-03-06T00:27:30.575Z,8.30
2019-03-06T00:30:34.133Z,8.00
2019-03-06T00:33:37.686Z,7.20
2019-03-06T00:36:41.896Z,7.30
2019-03-06T00:39:53.411Z,6.87
2019-03-06T00:42:56.964Z,7.07
2019-03-06T00:46:00.627Z,6.90
2019-03-06T00:49:04.462Z,7.30
2019-03-06T00:52:08.357Z,6.60
2019-03-06T00:55:12.099Z,6.47
2019-03-06T00:58:15.972Z,7.00
2019-03-06T01:01:19.526Z,6.13
2019-03-06T01:04:23.087Z,6.67
2019-03-06T01:07:26.643Z,6.77
2019-03-06T01:10:30.487Z,5.47
2019-03-06T01:13:34.039Z,6.10
2019-03-06T01:16:37.604Z,5.63
2019-03-06T01:19:41.162Z,5.50
2019-03-06T01:22:44.794Z,6.07
2019-03-06T01:25:48.366Z,5.63
2019-03-06T01:28:52.293Z,5.40
2019-03-06T01:31:56.142Z,5.40
2019-03-06T01:35:18.746Z,5.50
2019-03-06T01:38:47.566Z,5.30
2019-03-06T01:41:59.197Z,5.30
2019-03-06T01:45:05.467Z,5.50
2019-03-06T01:48:09.367Z,5.20
2019-03-06T01:51:12.916Z,4.90
2019-03-06T01:54:16.462Z,5.10
2019-03-06T01:57:20.271Z,4.60
2019-03-06T02:00:24.246Z,4.73
2019-03-06T02:03:28.075Z,4.37
2019-03-06T02:06:31.958Z,4.23
2019-03-06T02:09:35.512Z,4.30
2019-03-06T02:12:39.071Z,4.67
2019-03-06T02:15:42.879Z,4.47
2019-03-06T02:18:46.720Z,4.17
2019-03-06T02:21:50.290Z,4.60
2019-03-06T02:24:54.225Z,4.20
2019-03-06T02:27:58.054Z,3.77
2019-03-06T02:31:01.613Z,4.30
2019-03-06T02:34:05.183Z,3.70
2019-03-06T02:37:08.762Z,3.90
2019-03-06T02:40:12.304Z,3.57
2019-03-06T02:43:16.260Z,4.10
2019-03-06T02:46:20.170Z,4.00
2019-03-06T02:49:24.078Z,4.13
2019-03-06T02:52:28.193Z,4.40
2019-03-06T02:55:32.504Z,3.97
2019-03-06T02:59:01.491Z,3.80
2019-03-06T03:02:16.834Z,3.90
2019-03-06T03:05:37.983Z,3.70
2019-03-06T03:08:41.541Z,3.80
2019-03-06T03:11:45.125Z,3.97
2019-03-06T03:14:48.684Z,3.53
2019-03-06T03:17:52.530Z,3.70
2019-03-06T03:20:56.413Z,3.73
2019-03-06T03:23:59.971Z,3.77
2019-03-06T03:27:03.560Z,3.30
2019-03-06T03:30:10.068Z,3.87
2019-03-06T03:33:13.866Z,3.23
2019-03-06T03:36:17.586Z,3.33
2019-03-06T03:39:21.227Z,3.53
2019-03-06T03:42:24.790Z,3.50
2019-03-06T03:45:28.739Z,3.63
2019-03-06T03:48:32.291Z,3.20
2019-03-06T03:51:35.854Z,3.30
2019-03-06T03:54:39.425Z,3.87
2019-03-06T03:57:42.994Z,3.43
2019-03-06T04:00:46.558Z,3.50
2019-03-06T04:03:50.187Z,3.40
2019-03-06T04:06:54.190Z,3.27
2019-03-06T04:09:57.929Z,3.17
2019-03-06T04:13:01.488Z,3.17
2019-03-06T04:16:05.330Z,2.80
2019-03-06T04:19:09.449Z,3.40
2019-03-06T04:22:13.031Z,3.40
2019-03-06T04:25:16.589Z,3.30
2019-03-06T04:28:20.233Z,3.37
2019-03-06T04:31:24.425Z,3.57
2019-03-06T04:34:28.252Z,3.20
2019-03-06T04:37:31.806Z,3.83
2019-03-06T04:40:35.666Z,3.60
2019-03-06T04:43:39.234Z,2.90
2019-03-06T04:46:42.791Z,3.03
2019-03-06T04:49:52.564Z,3.40
2019-03-06T04:52:51.942Z,3.10
2019-03-06T04:55:55.505Z,2.97
2019-03-06T04:58:59.438Z,2.97
2019-03-06T05:02:03.265Z,2.90
2019-03-06T05:05:07.013Z,2.67
2019-03-06T05:08:10.567Z,2.73
2019-03-06T05:11:14.473Z,41.27
2019-03-06T05:14:18.388Z,17.93
2019-03-06T05:17:31.839Z,15.87
2019-03-06T05:20:35.851Z,14.23
2019-03-06T05:23:40.046Z,13.97
2019-03-06T05:26:43.620Z,73.70
2019-03-06T05:29:47.793Z,80.97
2019-03-06T05:32:51.467Z,100.07
2019-03-06T05:36:33.092Z,85.70
2019-03-06T05:39:37.241Z,78.00
2019-03-06T05:42:41.121Z,75.37
2019-03-06T05:45:44.700Z,73.67
2019-03-06T05:48:48.261Z,71.90
2019-03-06T05:51:51.846Z,60.17
2019-03-06T05:54:55.744Z,48.83
2019-03-06T05:57:59.379Z,41.73
2019-03-06T06:01:02.952Z,36.97
2019-03-06T06:04:06.853Z,33.73
2019-03-06T06:07:10.980Z,27.60
2019-03-06T06:10:14.827Z,27.57
2019-03-06T06:13:18.620Z,24.40
2019-03-06T06:16:22.191Z,24.13
2019-03-06T06:19:26.047Z,23.10
2019-03-06T06:22:37.807Z,20.73
2019-03-06T06:25:41.376Z,21.70
2019-03-06T06:28:44.939Z,21.43
2019-03-06T06:31:48.828Z,21.67
2019-03-06T06:34:52.571Z,19.80
2019-03-06T06:37:56.137Z,18.60
2019-03-06T06:40:59.722Z,18.33
2019-03-06T06:44:03.286Z,17.73
2019-03-06T06:47:07.152Z,18.17
2019-03-06T06:50:10.744Z,16.70
2019-03-06T06:53:46.658Z,16.50
2019-03-06T06:57:22.555Z,17.47
2019-03-06T07:01:13.025Z,15.77
2019-03-06T07:05:08.440Z,15.90
2019-03-06T07:08:19.104Z,14.50
2019-03-06T07:11:33.468Z,15.50
2019-03-06T07:14:42.895Z,15.63
2019-03-06T07:17:59.784Z,14.10
2019-03-06T07:21:11.625Z,13.83
2019-03-06T07:24:49.593Z,13.73
2019-03-06T07:28:31.011Z,12.63
2019-03-06T07:32:00.198Z,12.87
2019-03-06T07:36:03.121Z,12.00
2019-03-06T07:39:23.380Z,13.07
2019-03-06T07:42:37.341Z,12.43
2019-03-06T07:45:59.774Z,11.43
2019-03-06T07:49:17.944Z,11.83
2019-03-06T07:52:40.813Z,11.20
2019-03-06T07:55:57.785Z,11.77
2019-03-06T07:59:01.359Z,10.73
2019-03-06T08:02:08.517Z,10.60
2019-03-06T08:05:12.459Z,10.70
2019-03-06T08:08:16.032Z,10.77
2019-03-06T08:11:32.003Z,9.33
2019-03-06T08:14:47.162Z,9.47
2019-03-06T08:18:16.047Z,9.60
2019-03-06T08:21:32.877Z,9.27
2019-03-06T08:25:01.916Z,9.77
2019-03-06T08:28:05.887Z,8.53
2019-03-06T08:31:41.130Z,9.23
2019-03-06T08:34:44.698Z,8.83
2019-03-06T08:37:48.271Z,8.73
2019-03-06T08:40:51.831Z,8.67
2019-03-06T08:43:55.731Z,8.40
2019-03-06T08:47:21.189Z,7.70
2019-03-06T08:50:47.102Z,7.77
2019-03-06T08:54:02.226Z,8.20
2019-03-06T08:57:20.362Z,7.50
2019-03-06T09:00:46.106Z,7.27
2019-03-06T09:04:02.453Z,7.30
2019-03-06T09:07:15.911Z,7.00
2019-03-06T09:10:48.152Z,7.33
2019-03-06T09:14:03.475Z,7.00
2019-03-06T09:17:16.185Z,7.00
2019-03-06T09:20:41.072Z,6.37
2019-03-06T09:24:02.919Z,6.23
2019-03-06T09:27:30.995Z,6.27
2019-03-06T09:30:39.728Z,6.43
2019-03-06T09:33:57.663Z,5.73
2019-03-06T09:37:19.085Z,6.10
2019-03-06T09:40:36.208Z,5.87
2019-03-06T09:43:50.148Z,5.50
2019-03-06T09:47:16.090Z,5.43
2019-03-06T09:50:38.698Z,5.77
2019-03-06T09:54:02.606Z,5.23
2019-03-06T09:57:34.603Z,5.63
2019-03-06T10:00:55.954Z,5.23
2019-03-06T10:04:22.229Z,4.93
2019-03-06T10:07:47.942Z,5.27
2019-03-06T10:10:58.012Z,4.90
2019-03-06T10:14:07.350Z,5.20
2019-03-06T10:17:16.898Z,4.90
2019-03-06T10:20:25.045Z,5.03
2019-03-06T10:23:27.514Z,5.07
2019-03-06T10:26:31.082Z,4.67
2019-03-06T10:29:34.647Z,4.70
2019-03-06T10:32:38.489Z,4.47
2019-03-06T10:35:42.469Z,4.33
2019-03-06T10:38:46.089Z,4.50
2019-03-06T10:41:49.947Z,4.33
2019-03-06T10:44:53.539Z,4.20
2019-03-06T10:47:57.102Z,3.93
2019-03-06T10:51:00.730Z,4.20
2019-03-06T10:54:04.389Z,3.83
2019-03-06T10:57:08.201Z,4.30
2019-03-06T11:00:17.229Z,3.73
2019-03-06T11:03:21.069Z,4.30
2019-03-06T11:06:24.648Z,3.57
2019-03-06T11:09:28.278Z,3.40
2019-03-06T11:12:31.920Z,3.93
2019-03-06T11:15:35.696Z,3.73
2019-03-06T11:18:39.265Z,3.50
2019-03-06T11:21:42.864Z,3.53
2019-03-06T11:24:46.702Z,4.07
2019-03-06T11:27:50.614Z,3.00
2019-03-06T11:30:54.659Z,3.27
2019-03-06T11:33:58.298Z,3.43
2019-03-06T11:37:01.953Z,3.10
2019-03-06T11:40:06.131Z,3.30
2019-03-06T11:43:10.338Z,3.27
2019-03-06T11:46:14.169Z,3.20
2019-03-06T11:49:18.085Z,3.27
2019-03-06T11:52:22.528Z,2.63
2019-03-06T11:55:26.522Z,3.03
2019-03-06T11:58:30.256Z,3.03
2019-03-06T12:01:36.080Z,3.07
2019-03-06T12:04:39.655Z,3.00
2019-03-06T12:07:43.525Z,3.00
2019-03-06T12:10:47.495Z,2.67
2019-03-06T12:13:51.074Z,2.90
2019-03-06T12:16:54.618Z,2.60
2019-03-06T12:20:07.549Z,2.87
2019-03-06T12:23:04.104Z,2.60
2019-03-06T12:26:07.828Z,2.30
2019-03-06T12:29:11.461Z,2.80
2019-03-06T12:32:15.009Z,2.30
2019-03-06T12:35:18.741Z,2.60
2019-03-06T12:38:22.293Z,2.67
2019-03-06T12:41:25.846Z,2.53
2019-03-06T12:44:29.468Z,2.60
2019-03-06T12:47:33.378Z,2.50
2019-03-06T12:50:37.073Z,2.37
2019-03-06T12:53:40.632Z,2.50
2019-03-06T12:56:44.270Z,2.67
2019-03-06T12:59:47.828Z,2.63
2019-03-06T13:02:51.869Z,2.10
2019-03-06T13:05:55.430Z,2.40
2019-03-06T13:08:59.399Z,2.40
2019-03-06T13:12:03.029Z,2.30
2019-03-06T13:15:07.858Z,2.30
2019-03-06T13:18:11.409Z,2.20
2019-03-06T13:21:14.978Z,2.30
2019-03-06T13:24:18.613Z,2.17
2019-03-06T13:27:22.236Z,2.30
2019-03-06T13:30:26.584Z,2.30
2019-03-06T13:33:55.266Z,2.20
2019-03-06T13:36:59.140Z,2.20
2019-03-06T13:40:03.450Z,2.10
2019-03-06T13:43:07.063Z,2.10
2019-03-06T13:46:10.620Z,2.40
2019-03-06T13:49:14.811Z,2.20
2019-03-06T13:52:18.369Z,1.90
2019-03-06T13:55:22.198Z,1.90
2019-03-06T13:58:25.751Z,2.00
2019-03-06T14:01:29.309Z,1.97
2019-03-06T14:04:33.108Z,2.00
2019-03-06T14:07:36.665Z,2.10
2019-03-06T14:10:40.221Z,2.00
2019-03-06T14:13:43.850Z,2.03
2019-03-06T14:16:47.409Z,2.10
2019-03-06T14:19:50.958Z,2.00
2019-03-06T14:22:54.537Z,1.80
2019-03-06T14:25:58.396Z,1.90
2019-03-06T14:29:02.246Z,1.60
2019-03-06T14:32:14.383Z,1.60
2019-03-06T14:35:11.522Z,1.70
2019-03-06T14:38:15.088Z,1.60
2019-03-06T14:41:18.721Z,1.47
2019-03-06T14:44:22.798Z,1.80
2019-03-06T14:47:26.363Z,1.60
2019-03-06T14:50:29.980Z,1.80
2019-03-06T14:53:34.495Z,1.43
2019-03-06T14:56:38.126Z,1.90
2019-03-06T14:59:41.922Z,1.87
2019-03-06T15:02:45.657Z,1.43
2019-03-06T15:05:49.829Z,1.60
2019-03-06T15:08:53.718Z,1.57
2019-03-06T15:11:57.634Z,1.80
2019-03-06T15:15:01.178Z,1.60
2019-03-06T15:18:10.600Z,1.40
2019-03-06T15:21:10.513Z,1.57
2019-03-06T15:24:14.352Z,1.53
2019-03-06T15:27:18.157Z,1.40
2019-03-06T15:30:21.777Z,1.33
2019-03-06T15:33:25.675Z,1.50
2019-03-06T15:36:29.660Z,1.70
2019-03-06T15:39:42.629Z,1.60
2019-03-06T15:42:39.988Z,1.60
2019-03-06T15:45:43.852Z,1.50
2019-03-06T15:48:47.415Z,1.40
2019-03-06T15:51:50.971Z,15.13
2019-03-06T15:54:54.889Z,98.63
2019-03-06T15:57:59.278Z,108.87
2019-03-06T16:01:03.301Z,125.80
2019-03-06T16:04:07.429Z,103.37
2019-03-06T16:07:11.062Z,98.43
2019-03-06T16:10:15.516Z,104.37
2019-03-06T16:13:19.262Z,97.07
2019-03-06T16:16:22.916Z,97.00
2019-03-06T16:19:26.486Z,97.70
2019-03-06T16:22:30.068Z,94.50
2019-03-06T16:25:37.301Z,91.83
2019-03-06T16:28:39.095Z,91.43
2019-03-06T16:31:43.222Z,90.30
2019-03-06T16:34:47.341Z,88.03
2019-03-06T16:37:51.595Z,84.07
2019-03-06T16:40:55.168Z,106.47
2019-03-06T16:43:59.101Z,59.47
2019-03-06T16:47:06.721Z,119.13
2019-03-06T16:50:14.275Z,120.70
2019-03-06T16:53:15.288Z,118.10
2019-03-06T16:56:18.922Z,113.20
2019-03-06T16:59:22.800Z,110.53
2019-03-06T17:02:26.662Z,108.23
2019-03-06T17:05:30.588Z,98.83
2019-03-06T17:08:34.341Z,104.83
2019-03-06T17:11:37.910Z,101.40
2019-03-06T17:14:41.488Z,98.83
2019-03-06T17:17:45.140Z,96.63
2019-03-06T17:20:48.742Z,93.50
2019-03-06T17:23:52.317Z,94.83
2019-03-06T17:26:56.791Z,82.60
2019-03-06T17:30:00.540Z,87.97
2019-03-06T17:33:06.839Z,83.30
2019-03-06T17:36:10.818Z,84.57
2019-03-06T17:39:16.335Z,71.30
2019-03-06T17:42:20.358Z,84.70
2019-03-06T17:45:24.385Z,77.13
2019-03-06T17:48:27.952Z,106.80
2019-03-06T17:51:31.643Z,103.30
2019-03-06T17:54:35.281Z,89.83
2019-03-06T17:57:39.177Z,81.13
2019-03-06T18:00:46.411Z,66.93
2019-03-06T18:04:03.462Z,59.50
2019-03-06T18:07:07.104Z,56.60
2019-03-06T18:10:12.344Z,54.47
2019-03-06T18:13:15.909Z,52.07
2019-03-06T18:16:19.703Z,49.13
2019-03-06T18:19:23.328Z,47.13
2019-03-06T18:22:26.994Z,46.03
2019-03-06T18:25:30.555Z,45.50
2019-03-06T18:28:34.715Z,43.23
2019-03-06T18:31:38.628Z,41.70
2019-03-06T18:34:42.191Z,42.30
2019-03-06T18:37:45.919Z,39.83
2019-03-06T18:40:49.744Z,40.67
2019-03-06T18:43:53.736Z,37.27
2019-03-06T18:46:57.526Z,38.17
2019-03-06T18:50:01.337Z,36.43
2019-03-06T18:53:04.886Z,36.23
2019-03-06T18:56:08.443Z,35.37
2019-03-06T18:59:12.009Z,33.23
2019-03-06T19:02:15.647Z,32.60
2019-03-06T19:05:19.851Z,32.17
2019-03-06T19:08:31.090Z,33.03
2019-03-06T19:11:28.707Z,30.60
2019-03-06T19:14:32.284Z,32.73
2019-03-06T19:17:36.272Z,30.33
2019-03-06T19:20:40.233Z,29.57
2019-03-06T19:23:45.812Z,28.03
2019-03-06T19:26:49.095Z,27.97
2019-03-06T19:29:52.663Z,29.60
2019-03-06T19:32:56.688Z,28.73
2019-03-06T19:36:00.536Z,27.27
2019-03-06T19:39:05.883Z,29.53
2019-03-06T19:42:09.718Z,27.27
2019-03-06T19:45:14.586Z,27.00
2019-03-06T19:48:18.467Z,26.77
2019-03-06T19:51:22.311Z,26.00
2019-03-06T19:54:26.184Z,25.47
2019-03-06T19:57:49.856Z,24.87
2019-03-06T20:00:53.428Z,25.40
2019-03-06T20:03:56.994Z,22.27
2019-03-06T20:07:00.555Z,23.57
2019-03-06T20:10:04.583Z,23.33
2019-03-06T20:13:08.796Z,22.87
2019-03-06T20:16:12.436Z,21.53
2019-03-06T20:19:16.297Z,22.43
2019-03-06T20:22:20.195Z,20.97
2019-03-06T20:25:23.939Z,21.43
2019-03-06T20:28:27.772Z,20.63
2019-03-06T20:31:31.765Z,21.97
2019-03-06T20:34:35.649Z,20.10
2019-03-06T20:37:39.278Z,21.07
2019-03-06T20:40:43.180Z,20.07
2019-03-06T20:43:46.931Z,19.57
2019-03-06T20:46:50.800Z,18.83
2019-03-06T20:49:54.370Z,18.43
2019-03-06T20:52:57.936Z,20.40
2019-03-06T20:56:01.559Z,19.00
2019-03-06T20:59:05.596Z,18.23
2019-03-06T21:02:09.373Z,17.43
2019-03-06T21:05:13.004Z,17.43
2019-03-06T21:08:16.849Z,16.40
2019-03-06T21:11:20.420Z,17.00
2019-03-06T21:14:24.279Z,16.27
2019-03-06T21:17:27.847Z,15.97
2019-03-06T21:20:31.421Z,16.83
2019-03-06T21:23:35.587Z,15.70
2019-03-06T21:26:39.159Z,15.67
2019-03-06T21:29:42.714Z,15.53
2019-03-06T21:32:46.284Z,15.80
2019-03-06T21:35:49.848Z,15.70
2019-03-06T21:38:53.408Z,14.40
2019-03-06T21:41:56.984Z,14.17
2019-03-06T21:45:00.569Z,14.47
2019-03-06T21:48:04.178Z,14.00
2019-03-06T21:51:07.749Z,13.80
2019-03-06T21:54:11.311Z,14.80
2019-03-06T21:57:15.058Z,13.37
2019-03-06T22:00:19.560Z,12.20
2019-03-06T22:03:24.732Z,12.80
2019-03-06T22:06:28.615Z,12.50
2019-03-06T22:09:32.175Z,12.37
2019-03-06T22:12:36.060Z,11.80
2019-03-06T22:15:39.623Z,11.60
2019-03-06T22:18:43.191Z,12.10
2019-03-06T22:21:47.078Z,11.60
2019-03-06T22:24:50.643Z,11.80
2019-03-06T22:27:54.286Z,10.87
2019-03-06T22:30:57.845Z,10.67
2019-03-06T22:34:01.422Z,11.33
2019-03-06T22:37:04.983Z,11.07
2019-03-06T22:40:09.756Z,10.20
2019-03-06T22:43:13.597Z,9.20
2019-03-06T22:46:17.156Z,10.57
2019-03-06T22:49:21.154Z,10.30
2019-03-06T22:52:24.765Z,9.00
2019-03-06T22:55:28.635Z,9.70
2019-03-06T22:58:32.217Z,80.23
2019-03-06T23:01:37.607Z,88.73
2019-03-06T23:04:41.472Z,75.90
2019-03-06T23:07:45.340Z,103.77
2019-03-06T23:10:48.977Z,130.83
2019-03-06T23:13:52.800Z,124.50
2019-03-06T23:16:56.629Z,107.47
2019-03-06T23:20:00.381Z,99.83
2019-03-06T23:23:04.331Z,94.83
2019-03-06T23:26:08.769Z,88.33
2019-03-06T23:29:12.993Z,87.33
2019-03-06T23:32:16.832Z,80.40
2019-03-06T23:35:20.407Z,77.17
2019-03-06T23:38:23.982Z,75.10
2019-03-06T23:41:27.704Z,70.53
2019-03-06T23:44:31.934Z,69.40
2019-03-06T23:47:35.496Z,67.60
2019-03-06T23:50:39.653Z,64.37
2019-03-06T23:53:51.486Z,62.77
2019-03-06T23:56:55.360Z,59.37
2019-03-06T23:59:58.926Z,58.83
